createdAt,value
2022-11-07T00:00:13.242Z,12.80
2022-11-07T00:02:40.730Z,12.38
2022-11-07T00:05:08.523Z,12.82
2022-11-07T00:07:36.009Z,12.80
2022-11-07T00:10:04.068Z,12.07
2022-11-07T00:12:31.427Z,12.48
2022-11-07T00:15:00.191Z,11.63
2022-11-07T00:17:27.530Z,13.27
2022-11-07T00:19:54.864Z,12.95
2022-11-07T00:22:22.250Z,12.70
2022-11-07T00:24:49.591Z,11.85
2022-11-07T00:27:17.460Z,11.98
2022-11-07T00:29:44.823Z,11.90
2022-11-07T00:32:13.613Z,12.23
2022-11-07T00:34:40.919Z,12.90
2022-11-07T00:37:08.252Z,12.20
2022-11-07T00:39:35.551Z,13.13
2022-11-07T00:42:02.972Z,11.60
2022-11-07T00:44:30.308Z,12.70
2022-11-07T00:46:57.644Z,12.23
2022-11-07T00:49:26.485Z,11.95
2022-11-07T00:51:53.804Z,11.80
2022-11-07T00:54:21.274Z,11.70
2022-11-07T00:56:48.597Z,12.00
2022-11-07T00:59:15.974Z,11.75
2022-11-07T01:01:43.360Z,12.25
2022-11-07T01:04:13.544Z,12.02
2022-11-07T01:06:44.538Z,12.43
2022-11-07T01:09:14.031Z,12.50
2022-11-07T01:11:42.552Z,12.32
2022-11-07T01:14:11.008Z,12.75
2022-11-07T01:16:38.676Z,11.93
2022-11-07T01:19:07.011Z,13.18
2022-11-07T01:21:34.405Z,13.13
2022-11-07T01:24:04.383Z,13.43
2022-11-07T01:26:31.780Z,12.75
2022-11-07T01:28:59.108Z,12.80
2022-11-07T01:31:27.194Z,12.35
2022-11-07T01:33:54.583Z,11.57
2022-11-07T01:36:21.971Z,12.13
2022-11-07T01:38:49.840Z,12.13
2022-11-07T01:41:20.289Z,12.55
2022-11-07T01:43:49.957Z,13.55
2022-11-07T01:46:18.453Z,12.43
2022-11-07T01:48:56.243Z,13.35
2022-11-07T01:51:24.926Z,11.50
2022-11-07T01:53:54.926Z,12.73
2022-11-07T01:56:29.567Z,12.00
2022-11-07T01:58:58.641Z,12.75
2022-11-07T02:01:26.443Z,11.88
2022-11-07T02:03:56.930Z,11.98
2022-11-07T02:06:32.350Z,12.68
2022-11-07T02:09:00.072Z,11.68
2022-11-07T02:11:29.327Z,11.75
2022-11-07T02:16:24.135Z,12.95
2022-11-07T02:18:51.698Z,12.80
2022-11-07T02:21:30.208Z,12.02
2022-11-07T02:24:06.670Z,11.70
2022-11-07T02:26:37.489Z,11.93
2022-11-07T02:29:09.069Z,11.65
2022-11-07T02:31:36.488Z,12.07
2022-11-07T02:34:04.039Z,11.23
2022-11-07T02:36:31.693Z,12.23
2022-11-07T02:39:00.525Z,11.77
2022-11-07T02:41:30.836Z,11.60
2022-11-07T02:44:03.133Z,11.68
2022-11-07T02:46:32.098Z,11.15
2022-11-07T02:49:01.318Z,10.80
2022-11-07T02:51:30.249Z,11.32
2022-11-07T02:53:57.721Z,10.73
2022-11-07T02:56:25.461Z,11.73
2022-11-07T02:58:52.926Z,11.10
2022-11-07T03:01:22.856Z,10.40
2022-11-07T03:03:51.151Z,10.45
2022-11-07T03:06:23.540Z,10.43
2022-11-07T03:08:51.328Z,11.77
2022-11-07T03:11:19.026Z,11.43
2022-11-07T03:13:47.012Z,11.25
2022-11-07T03:16:15.691Z,12.10
2022-11-07T03:18:44.752Z,10.38
2022-11-07T03:21:12.124Z,11.02
2022-11-07T03:23:40.056Z,10.20
2022-11-07T03:26:07.404Z,9.63
2022-11-07T03:28:35.354Z,10.63
2022-11-07T03:31:04.066Z,10.75
2022-11-07T03:33:32.033Z,11.27
2022-11-07T03:36:00.876Z,10.75
2022-11-07T03:38:28.767Z,11.00
2022-11-07T03:40:56.205Z,11.07
2022-11-07T03:43:23.552Z,10.60
2022-11-07T03:45:51.070Z,10.38
2022-11-07T03:48:18.563Z,10.40
2022-11-07T03:50:46.037Z,11.05
2022-11-07T03:53:17.257Z,11.15
2022-11-07T03:55:46.992Z,11.48
2022-11-07T03:58:14.694Z,12.95
2022-11-07T04:00:42.188Z,13.35
2022-11-07T04:03:09.503Z,12.00
2022-11-07T04:05:36.908Z,13.13
2022-11-07T04:08:04.584Z,12.32
2022-11-07T04:10:33.572Z,11.38
2022-11-07T04:13:00.990Z,12.83
2022-11-07T04:15:28.787Z,13.60
2022-11-07T04:17:56.223Z,10.45
2022-11-07T04:20:23.802Z,9.98
2022-11-07T04:22:51.181Z,10.40
2022-11-07T04:25:18.624Z,10.00
2022-11-07T04:27:48.535Z,10.45
2022-11-07T04:30:17.549Z,10.50
2022-11-07T04:32:45.165Z,12.90
2022-11-07T04:35:12.590Z,12.85
2022-11-07T04:37:40.818Z,10.20
2022-11-07T04:40:09.786Z,11.35
2022-11-07T04:42:37.574Z,11.05
2022-11-07T04:45:08.108Z,10.73
2022-11-07T04:47:40.230Z,10.65
2022-11-07T04:50:10.355Z,13.00
2022-11-07T04:52:37.947Z,13.52
2022-11-07T04:55:06.355Z,13.65
2022-11-07T04:57:33.738Z,11.40
2022-11-07T05:00:01.195Z,13.68
2022-11-07T05:02:30.837Z,12.82
2022-11-07T05:04:58.359Z,12.23
2022-11-07T05:07:25.727Z,11.10
2022-11-07T05:09:53.353Z,12.52
2022-11-07T05:12:20.868Z,11.32
2022-11-07T05:14:48.365Z,12.50
2022-11-07T05:17:16.545Z,13.23
2022-11-07T05:19:45.792Z,12.05
2022-11-07T05:22:13.180Z,14.70
2022-11-07T05:24:40.690Z,12.52
2022-11-07T05:27:16.250Z,12.30
2022-11-07T05:29:43.718Z,13.57
2022-11-07T05:32:11.105Z,12.00
2022-11-07T05:34:38.586Z,13.52
2022-11-07T05:37:09.372Z,10.55
2022-11-07T05:39:36.965Z,11.88
2022-11-07T05:42:05.393Z,10.57
2022-11-07T05:44:32.995Z,11.02
2022-11-07T05:47:00.509Z,12.00
2022-11-07T05:49:27.847Z,10.55
2022-11-07T05:51:55.464Z,10.82
2022-11-07T05:54:24.410Z,11.05
2022-11-07T05:56:55.806Z,11.03
2022-11-07T05:59:23.870Z,9.95
2022-11-07T06:01:52.218Z,10.07
2022-11-07T06:04:19.591Z,10.93
2022-11-07T06:06:47.200Z,12.27
2022-11-07T06:09:14.654Z,12.30
2022-11-07T06:11:43.439Z,13.45
2022-11-07T06:14:10.825Z,15.60
2022-11-07T06:16:38.299Z,12.27
2022-11-07T06:19:05.847Z,12.40
2022-11-07T06:21:34.641Z,13.10
2022-11-07T06:24:03.172Z,12.75
2022-11-07T06:26:30.959Z,12.05
2022-11-07T06:28:59.712Z,14.75
2022-11-07T06:31:27.103Z,11.48
2022-11-07T06:33:54.480Z,11.20
2022-11-07T06:36:22.060Z,12.98
2022-11-07T06:38:52.066Z,15.52
2022-11-07T06:41:20.154Z,12.35
2022-11-07T06:43:47.620Z,14.07
2022-11-07T06:46:16.543Z,11.23
2022-11-07T06:48:44.003Z,13.73
2022-11-07T06:51:11.694Z,16.73
2022-11-07T06:53:41.388Z,15.35
2022-11-07T06:56:15.598Z,17.65
2022-11-07T06:58:43.147Z,18.48
2022-11-07T07:01:12.594Z,20.20
2022-11-07T07:03:42.260Z,20.25
2022-11-07T07:06:13.924Z,16.42
2022-11-07T07:08:42.662Z,21.25
2022-11-07T07:11:12.202Z,21.90
2022-11-07T07:13:40.063Z,15.10
2022-11-07T07:16:08.172Z,15.27
2022-11-07T07:18:35.993Z,18.52
2022-11-07T07:21:06.938Z,16.13
2022-11-07T07:23:34.809Z,19.55
2022-11-07T07:28:45.930Z,20.48
2022-11-07T07:31:22.272Z,21.13
2022-11-07T07:33:50.005Z,20.50
2022-11-07T07:36:20.989Z,17.85
2022-11-07T07:38:48.988Z,18.42
2022-11-07T07:41:17.485Z,14.45
2022-11-07T07:43:45.486Z,12.73
2022-11-07T07:46:16.123Z,13.75
2022-11-07T07:48:43.559Z,15.35
2022-11-07T07:51:10.919Z,13.07
2022-11-07T07:53:40.392Z,16.38
2022-11-07T07:58:49.461Z,18.23
2022-11-07T08:01:16.845Z,14.32
2022-11-07T08:04:00.827Z,13.05
2022-11-07T08:06:29.404Z,14.32
2022-11-07T08:08:58.560Z,14.35
2022-11-07T08:11:25.998Z,14.55
2022-11-07T08:13:58.389Z,18.83
2022-11-07T08:16:28.303Z,16.45
2022-11-07T08:18:55.639Z,12.30
2022-11-07T08:21:23.039Z,11.13
2022-11-07T08:23:50.531Z,10.82
2022-11-07T08:26:19.860Z,13.38
2022-11-07T08:28:47.179Z,14.48
2022-11-07T08:31:14.724Z,14.50
2022-11-07T08:33:42.307Z,14.75
2022-11-07T08:36:10.617Z,14.48
2022-11-07T08:38:38.205Z,15.50
2022-11-07T08:41:05.969Z,14.05
2022-11-07T08:43:35.035Z,15.48
2022-11-07T08:46:02.446Z,14.30
2022-11-07T08:48:30.322Z,11.75
2022-11-07T08:50:58.755Z,11.30
2022-11-07T08:53:27.112Z,11.35
2022-11-07T08:56:01.611Z,12.70
2022-11-07T08:58:30.344Z,11.38
2022-11-07T09:00:59.899Z,12.80
2022-11-07T09:06:15.382Z,13.20
2022-11-07T09:08:42.729Z,15.10
2022-11-07T09:11:10.496Z,12.43
2022-11-07T09:13:37.907Z,13.50
2022-11-07T09:16:07.344Z,14.25
2022-11-07T09:18:34.693Z,15.35
2022-11-07T09:21:02.193Z,15.45
2022-11-07T09:23:29.657Z,16.17
2022-11-07T09:25:59.602Z,14.95
2022-11-07T09:28:27.335Z,15.05
2022-11-07T09:30:55.405Z,16.70
2022-11-07T09:33:25.129Z,14.10
2022-11-07T09:38:20.119Z,16.77
2022-11-07T09:40:53.445Z,17.27
2022-11-07T09:43:35.064Z,14.55
2022-11-07T09:46:12.781Z,13.77
2022-11-07T09:48:45.493Z,10.30
2022-11-07T09:51:17.821Z,11.02
2022-11-07T09:53:48.127Z,16.95
2022-11-07T09:56:16.257Z,13.55
2022-11-07T09:58:44.800Z,15.98
2022-11-07T10:01:14.277Z,14.48
2022-11-07T10:04:10.304Z,12.40
2022-11-07T10:09:11.091Z,15.20
2022-11-07T10:11:45.248Z,14.02
2022-11-07T10:14:22.769Z,12.80
2022-11-07T10:17:03.171Z,16.40
2022-11-07T10:19:45.042Z,13.18
2022-11-07T10:22:24.114Z,15.18
2022-11-07T10:25:05.011Z,14.05
2022-11-07T10:27:33.089Z,13.65
2022-11-07T10:30:01.606Z,13.30
2022-11-07T10:32:42.147Z,14.48
2022-11-07T10:35:21.903Z,16.05
2022-11-07T10:40:21.124Z,14.40
2022-11-07T10:42:49.272Z,15.40
2022-11-07T10:45:18.321Z,14.38
2022-11-07T10:47:56.687Z,16.70
2022-11-07T10:50:25.945Z,21.42
2022-11-07T10:52:56.001Z,21.30
2022-11-07T10:55:24.468Z,18.67
2022-11-07T10:57:58.945Z,19.23
2022-11-07T11:00:28.675Z,17.40
2022-11-07T11:05:28.116Z,15.13
2022-11-07T11:07:57.952Z,15.57
2022-11-07T11:12:55.231Z,14.55
2022-11-07T11:15:24.617Z,14.80
2022-11-07T11:18:00.749Z,16.77
2022-11-07T11:20:36.697Z,16.10
2022-11-07T11:23:06.396Z,18.25
2022-11-07T11:28:19.205Z,18.77
2022-11-07T11:30:51.087Z,18.63
2022-11-07T11:33:25.261Z,16.27
2022-11-07T11:35:58.639Z,15.25
2022-11-07T11:38:30.278Z,16.90
2022-11-07T11:41:07.645Z,21.48
2022-11-07T11:43:41.830Z,20.42
2022-11-07T11:46:14.808Z,17.90
2022-11-07T11:48:48.519Z,20.75
2022-11-07T11:51:24.297Z,21.08
2022-11-07T11:53:51.957Z,25.67
2022-11-07T11:56:30.972Z,23.75
2022-11-07T11:59:34.108Z,20.65
2022-11-07T12:02:20.322Z,21.75
2022-11-07T12:04:56.654Z,21.27
2022-11-07T12:07:46.058Z,17.85
2022-11-07T12:10:23.780Z,16.75
2022-11-07T12:13:04.380Z,17.50
2022-11-07T12:15:44.000Z,16.15
2022-11-07T12:18:19.330Z,15.43
2022-11-07T12:21:01.291Z,14.00
2022-11-07T12:23:46.014Z,16.83
2022-11-07T12:26:21.352Z,16.38
2022-11-07T12:28:59.902Z,13.65
2022-11-07T12:31:42.224Z,15.07
2022-11-07T12:34:22.298Z,13.70
2022-11-07T12:36:59.688Z,14.07
2022-11-07T12:39:49.957Z,15.23
2022-11-07T12:42:31.290Z,11.15
2022-11-07T12:45:10.325Z,10.95
2022-11-07T12:47:55.526Z,11.80
2022-11-07T12:50:33.876Z,12.68
2022-11-07T12:53:23.110Z,11.27
2022-11-07T12:55:57.229Z,10.52
2022-11-07T12:58:29.256Z,12.00
2022-11-07T13:00:58.073Z,11.73
2022-11-07T13:03:41.692Z,10.40
2022-11-07T13:06:15.868Z,10.95
2022-11-07T13:08:52.331Z,11.65
2022-11-07T13:11:29.206Z,12.45
2022-11-07T13:14:12.989Z,13.98
2022-11-07T13:16:50.577Z,14.10
2022-11-07T13:19:32.619Z,14.77
2022-11-07T13:22:02.250Z,11.45
2022-11-07T13:24:30.863Z,13.98
2022-11-07T13:27:00.266Z,11.15
2022-11-07T13:29:35.699Z,10.68
2022-11-07T13:32:09.067Z,10.90
2022-11-07T13:34:52.140Z,11.15
2022-11-07T13:37:25.655Z,11.32
2022-11-07T13:39:58.841Z,11.70
2022-11-07T13:42:31.602Z,12.30
2022-11-07T13:45:08.101Z,10.23
2022-11-07T13:47:41.667Z,11.73
2022-11-07T13:50:19.937Z,11.20
2022-11-07T13:52:56.880Z,11.65
2022-11-07T13:55:29.448Z,11.68
2022-11-07T13:58:02.615Z,11.13
2022-11-07T14:00:32.040Z,11.57
2022-11-07T14:03:00.460Z,11.23
2022-11-07T14:05:30.499Z,10.85
2022-11-07T14:08:02.675Z,9.75
2022-11-07T14:10:34.355Z,11.50
2022-11-07T14:13:07.814Z,9.70
2022-11-07T14:15:36.650Z,10.50
2022-11-07T14:18:05.076Z,9.82
2022-11-07T14:20:32.537Z,9.77
2022-11-07T14:23:00.908Z,8.70
2022-11-07T14:25:30.486Z,8.93
2022-11-07T14:27:58.690Z,8.98
2022-11-07T14:30:30.446Z,9.90
2022-11-07T14:32:59.961Z,9.50
2022-11-07T14:35:29.325Z,9.38
2022-11-07T14:37:57.211Z,9.43
2022-11-07T14:40:25.808Z,10.00
2022-11-07T14:42:53.964Z,10.05
2022-11-07T14:45:46.786Z,10.73
2022-11-07T14:48:13.363Z,11.20
2022-11-07T14:50:42.029Z,9.55
2022-11-07T14:53:14.519Z,9.48
2022-11-07T14:55:46.716Z,9.32
2022-11-07T14:58:16.663Z,8.52
2022-11-07T15:00:52.199Z,9.18
2022-11-07T15:03:22.973Z,7.95
2022-11-07T15:05:50.429Z,7.90
2022-11-07T15:08:29.734Z,8.15
2022-11-07T15:11:05.952Z,7.88
2022-11-07T15:13:34.374Z,7.93
2022-11-07T15:16:06.127Z,8.13
2022-11-07T15:18:39.272Z,8.60
2022-11-07T15:21:08.878Z,9.02
2022-11-07T15:23:36.540Z,8.82
2022-11-07T15:26:12.615Z,8.80
2022-11-07T15:28:48.249Z,9.38
2022-11-07T15:31:20.883Z,11.07
2022-11-07T15:33:50.059Z,10.25
2022-11-07T15:36:18.469Z,10.13
2022-11-07T15:38:46.517Z,10.02
2022-11-07T15:41:14.312Z,9.82
2022-11-07T15:43:41.844Z,9.45
2022-11-07T15:46:22.214Z,10.15
2022-11-07T15:48:51.262Z,9.50
2022-11-07T15:51:18.685Z,9.25
2022-11-07T15:53:46.152Z,8.38
2022-11-07T15:56:16.349Z,8.93
2022-11-07T15:58:43.895Z,8.05
2022-11-07T16:01:11.493Z,7.85
2022-11-07T16:03:39.519Z,7.90
2022-11-07T16:06:16.796Z,8.02
2022-11-07T16:08:44.759Z,8.82
2022-11-07T16:11:12.098Z,8.80
2022-11-07T16:13:39.564Z,8.82
2022-11-07T16:16:08.089Z,8.40
2022-11-07T16:18:43.042Z,9.32
2022-11-07T16:21:11.925Z,8.07
2022-11-07T16:23:39.352Z,8.67
2022-11-07T16:26:07.241Z,9.80
2022-11-07T16:28:35.816Z,10.57
2022-11-07T16:31:03.377Z,10.65
2022-11-07T16:33:31.116Z,10.25
2022-11-07T16:36:00.267Z,12.48
2022-11-07T16:38:34.927Z,10.20
2022-11-07T16:41:03.196Z,9.50
2022-11-07T16:43:30.632Z,8.90
2022-11-07T16:45:58.020Z,9.25
2022-11-07T16:48:27.419Z,9.13
2022-11-07T16:50:56.015Z,8.55
2022-11-07T16:53:24.298Z,8.55
2022-11-07T16:55:54.848Z,8.13
2022-11-07T16:58:24.946Z,8.88
2022-11-07T17:00:53.314Z,8.13
2022-11-07T17:03:21.244Z,8.30
2022-11-07T17:05:48.722Z,8.23
2022-11-07T17:08:19.264Z,8.00
2022-11-07T17:10:46.836Z,7.90
2022-11-07T17:13:16.144Z,8.00
2022-11-07T17:18:18.619Z,7.28
2022-11-07T17:20:51.731Z,7.72
2022-11-07T17:23:24.088Z,7.80
2022-11-07T17:25:56.236Z,8.10
2022-11-07T17:28:25.276Z,7.95
2022-11-07T17:30:52.754Z,7.75
2022-11-07T17:33:20.252Z,8.68
2022-11-07T17:35:51.080Z,7.88
2022-11-07T17:38:18.796Z,7.78
2022-11-07T17:40:46.541Z,8.40
2022-11-07T17:43:13.947Z,8.02
2022-11-07T17:45:42.750Z,9.10
2022-11-07T17:48:10.729Z,8.47
2022-11-07T17:50:38.625Z,7.05
2022-11-07T17:53:06.004Z,10.85
2022-11-07T17:55:33.694Z,8.52
2022-11-07T17:58:01.097Z,10.98
2022-11-07T18:00:28.586Z,11.10
2022-11-07T18:02:57.646Z,11.25
2022-11-07T18:05:30.127Z,10.18
2022-11-07T18:07:59.261Z,9.52
2022-11-07T18:10:26.632Z,11.00
2022-11-07T18:12:56.190Z,10.23
2022-11-07T18:15:23.612Z,10.13
2022-11-07T18:17:51.200Z,10.50
2022-11-07T18:20:20.081Z,9.48
2022-11-07T18:22:47.421Z,9.00
2022-11-07T18:25:14.868Z,10.80
2022-11-07T18:27:42.244Z,9.77
2022-11-07T18:30:11.094Z,9.25
2022-11-07T18:32:38.634Z,8.67
2022-11-07T18:35:06.695Z,9.50
2022-11-07T18:37:35.947Z,9.50
2022-11-07T18:40:03.805Z,11.13
2022-11-07T18:42:31.227Z,11.27
2022-11-07T18:44:58.743Z,10.15
2022-11-07T18:47:26.145Z,11.05
2022-11-07T18:49:57.073Z,9.00
2022-11-07T18:52:24.847Z,8.80
2022-11-07T18:54:53.813Z,9.43
2022-11-07T18:57:21.163Z,8.93
2022-11-07T18:59:48.494Z,8.88
2022-11-07T19:02:16.875Z,8.15
2022-11-07T19:04:44.304Z,8.45
2022-11-07T19:07:11.683Z,8.98
2022-11-07T19:09:39.198Z,9.15
2022-11-07T19:12:08.218Z,8.35
2022-11-07T19:14:35.637Z,7.90
2022-11-07T19:17:03.077Z,9.13
2022-11-07T19:19:30.412Z,9.20
2022-11-07T19:21:57.747Z,9.30
2022-11-07T19:24:25.089Z,11.00
2022-11-07T19:26:52.428Z,11.27
2022-11-07T19:29:21.810Z,9.02
2022-11-07T19:31:49.359Z,8.45
2022-11-07T19:34:16.648Z,9.15
2022-11-07T19:36:44.024Z,8.90
2022-11-07T19:39:11.521Z,8.70
2022-11-07T19:41:38.886Z,8.38
2022-11-07T19:44:06.439Z,9.05
2022-11-07T19:46:35.286Z,9.40
2022-11-07T19:49:02.705Z,8.67
2022-11-07T19:51:30.057Z,8.40
2022-11-07T19:53:59.507Z,8.80
2022-11-07T19:56:28.542Z,9.15
2022-11-07T19:58:55.980Z,9.65
2022-11-07T20:01:25.415Z,9.82
2022-11-07T20:03:55.605Z,8.95
2022-11-07T20:06:25.174Z,9.50
2022-11-07T20:08:52.787Z,9.38
2022-11-07T20:11:22.385Z,10.30
2022-11-07T20:13:49.768Z,9.88
2022-11-07T20:16:17.905Z,9.95
2022-11-07T20:18:45.299Z,9.98
2022-11-07T20:21:15.578Z,9.20
2022-11-07T20:23:44.538Z,10.18
2022-11-07T20:26:14.109Z,8.85
2022-11-07T20:28:41.948Z,10.27
2022-11-07T20:31:10.174Z,9.25
2022-11-07T20:33:37.564Z,9.05
2022-11-07T20:36:08.218Z,9.02
2022-11-07T20:38:37.502Z,9.57
2022-11-07T20:41:06.100Z,8.63
2022-11-07T20:43:34.119Z,9.30
2022-11-07T20:46:03.885Z,8.88
2022-11-07T20:50:58.270Z,9.43
2022-11-07T20:53:25.655Z,9.65
2022-11-07T20:55:54.582Z,10.88
2022-11-07T20:58:21.905Z,9.20
2022-11-07T21:00:51.948Z,9.95
2022-11-07T21:03:20.227Z,9.48
2022-11-07T21:05:50.888Z,9.18
2022-11-07T21:08:19.180Z,9.02
2022-11-07T21:10:48.852Z,9.07
2022-11-07T21:13:18.490Z,9.30
2022-11-07T21:15:49.570Z,9.73
2022-11-07T21:18:17.436Z,9.48
2022-11-07T21:20:44.821Z,9.10
2022-11-07T21:23:12.254Z,9.20
2022-11-07T21:25:41.237Z,8.82
2022-11-07T21:28:08.885Z,9.63
2022-11-07T21:30:37.818Z,10.30
2022-11-07T21:33:05.868Z,8.60
2022-11-07T21:35:33.704Z,9.77
2022-11-07T21:38:01.132Z,9.75
2022-11-07T21:40:28.918Z,9.20
2022-11-07T21:42:56.250Z,9.77
2022-11-07T21:45:23.628Z,10.30
2022-11-07T21:47:52.441Z,11.55
2022-11-07T21:50:43.166Z,11.15
2022-11-07T21:53:08.227Z,10.77
2022-11-07T21:55:35.571Z,10.70
2022-11-07T21:58:02.923Z,11.82
2022-11-07T22:00:35.525Z,15.18
2022-11-07T22:03:04.952Z,14.63
2022-11-07T22:05:32.274Z,14.60
2022-11-07T22:07:59.940Z,12.65
2022-11-07T22:10:27.259Z,11.90
2022-11-07T22:12:54.960Z,12.20
2022-11-07T22:15:22.854Z,11.68
2022-11-07T22:17:50.179Z,11.40
2022-11-07T22:20:18.642Z,11.70
2022-11-07T22:22:45.966Z,12.80
2022-11-07T22:25:13.987Z,12.32
2022-11-07T22:27:41.834Z,10.98
2022-11-07T22:30:10.785Z,11.68
2022-11-07T22:32:38.679Z,11.00
2022-11-07T22:35:09.123Z,11.68
2022-11-07T22:37:38.283Z,10.82
2022-11-07T22:40:06.848Z,11.10
2022-11-07T22:42:34.144Z,10.07
2022-11-07T22:45:02.104Z,10.82
2022-11-07T22:47:29.541Z,11.20
2022-11-07T22:49:56.898Z,10.93
2022-11-07T22:52:24.989Z,11.05
2022-11-07T22:54:53.743Z,10.13
2022-11-07T22:57:21.064Z,9.90
2022-11-07T22:59:48.425Z,10.23
2022-11-07T23:02:15.867Z,9.65
2022-11-07T23:04:43.316Z,10.23
2022-11-07T23:07:10.624Z,10.13
2022-11-07T23:09:38.101Z,8.95
2022-11-07T23:12:07.085Z,9.82
2022-11-07T23:14:34.396Z,9.20
2022-11-07T23:17:02.103Z,9.95
2022-11-07T23:19:29.415Z,9.60
2022-11-07T23:21:56.824Z,9.60
2022-11-07T23:24:24.264Z,8.35
2022-11-07T23:26:51.645Z,9.38
2022-11-07T23:29:21.695Z,9.38
2022-11-07T23:31:50.790Z,9.48
2022-11-07T23:34:19.743Z,10.07
2022-11-07T23:36:50.322Z,9.00
2022-11-07T23:39:19.725Z,8.93
2022-11-07T23:41:47.287Z,8.55
2022-11-07T23:44:15.989Z,9.15
2022-11-07T23:46:45.095Z,8.70
2022-11-07T23:49:14.788Z,8.55
2022-11-07T23:51:43.183Z,8.30
2022-11-07T23:54:10.502Z,8.43
2022-11-07T23:56:37.832Z,8.20
2022-11-07T23:59:05.893Z,8.63
